This is the latest recevied weather packets stored in our database for station/object KE8URB. If no packets are shown the sender has not sent any weather packets the latest 10 day(s).
| Time | Temp. | Humidity | Pressure | Rain* | Wind** | Luminosity | Snow |
|---|---|---|---|---|---|---|---|
| 1787949961 | 25.56° C | 63% | 1020.8 hPa | 0 mm | - | 380 W/m² | - |
| 1787949660 | 24.44° C | 67% | 1020.6 hPa | 0 mm | - | 143 W/m² | - |
| 1787949354 | 25° C | 66% | 1020.7 hPa | 0 mm | - | 52 W/m² | - |
| 1787949049 | 25.56° C | 61% | 1020.6 hPa | 0 mm | - | 82 W/m² | - |
| 1787948745 | 25° C | 65% | 1020.8 hPa | 0 mm | - | 450 W/m² | - |
| 1787948440 | 25.56° C | 64% | 1020.7 hPa | 0 mm | - | 65 W/m² | - |
| 1787948135 | 25° C | 67% | 1020.8 hPa | 0 mm | - | 437 W/m² | - |
| 1787947835 | 24.44° C | 68% | 1021 hPa | 0 mm | - | 442 W/m² | - |
| 1787947533 | 23.89° C | 70% | 1021 hPa | 0 mm | - | 58 W/m² | - |
| 1787947229 | 24.44° C | 68% | 1021.1 hPa | 0 mm | - | 64 W/m² | - |
| 1787946928 | 24.44° C | 67% | 1021.1 hPa | 0 mm | - | 88 W/m² | - |
| 1787946626 | 25° C | 67% | 1021.1 hPa | 0 mm | - | 90 W/m² | - |
| 1787946321 | 25° C | 66% | 1020.7 hPa | 0 mm | - | 262 W/m² | - |
| 1787946021 | 25° C | 68% | 1021.2 hPa | 0 mm | - | 92 W/m² | - |
| 1787945720 | 25° C | 68% | 1021.2 hPa | 0 mm | - | 86 W/m² | - |
| 1787945416 | 24.44° C | 69% | 1021.4 hPa | 0 mm | - | 545 W/m² | - |
| 1787945112 | 24.44° C | 68% | 1021.1 hPa | 0 mm | - | 96 W/m² | - |
| 1787944809 | 25° C | 67% | 1021.3 hPa | 0 mm | - | 114 W/m² | - |
| 1787944504 | 25.56° C | 64% | 1021.2 hPa | 0 mm | - | 123 W/m² | - |
| 1787944200 | 25° C | 64% | 1021.2 hPa | 0 mm | - | 543 W/m² | - |
| 1787943899 | 25.56° C | 64% | 1021.3 hPa | 0 mm | - | 567 W/m² | - |
| 1787943595 | 25.56° C | 65% | 1021.1 hPa | 0 mm | - | 517 W/m² | - |
| 1787943294 | 25° C | 65% | 1021.3 hPa | 0 mm | - | 538 W/m² | - |
| 1787942989 | 25.56° C | 67% | 1021.6 hPa | 0 mm | - | 571 W/m² | - |
| 1787942685 | 25.56° C | 66% | 1021.5 hPa | 0 mm | - | 135 W/m² | - |
* Rain latest hour (hover to see other rain measurements)
** Current wind speed in m/s (hover to see current wind gust speed)